createdAt,value
2018-03-16T00:01:20.252Z,5.80
2018-03-16T00:03:48.527Z,5.80
2018-03-16T00:06:16.855Z,5.70
2018-03-16T00:08:45.888Z,5.60
2018-03-16T00:11:16.203Z,5.60
2018-03-16T00:13:44.492Z,5.60
2018-03-16T00:16:14.382Z,5.50
2018-03-16T00:18:42.657Z,5.70
2018-03-16T00:21:10.958Z,5.60
2018-03-16T00:23:40.017Z,5.60
2018-03-16T00:26:08.288Z,5.70
2018-03-16T00:28:37.129Z,5.70
2018-03-16T00:31:06.909Z,5.60
2018-03-16T00:33:35.180Z,5.60
2018-03-16T00:36:04.634Z,5.60
2018-03-16T00:38:32.892Z,5.60
2018-03-16T00:41:01.161Z,5.60
2018-03-16T00:43:30.267Z,5.60
2018-03-16T00:45:58.532Z,5.60
2018-03-16T00:48:27.081Z,5.60
2018-03-16T00:50:55.602Z,5.50
2018-03-16T00:53:24.673Z,5.40
2018-03-16T00:55:52.957Z,5.40
2018-03-16T00:58:21.561Z,5.50
2018-03-16T01:00:52.137Z,5.50
2018-03-16T01:03:20.436Z,5.50
2018-03-16T01:05:48.944Z,5.50
2018-03-16T01:08:17.216Z,5.40
2018-03-16T01:10:45.497Z,5.40
2018-03-16T01:13:14.374Z,5.30
2018-03-16T01:15:42.627Z,5.40
2018-03-16T01:18:12.383Z,5.50
2018-03-16T01:20:47.280Z,5.30
2018-03-16T01:23:15.651Z,5.30
2018-03-16T01:25:43.911Z,5.30
2018-03-16T01:28:12.227Z,5.40
2018-03-16T01:30:41.894Z,5.40
2018-03-16T01:33:10.945Z,5.30
2018-03-16T01:35:40.070Z,5.30
2018-03-16T01:38:09.102Z,5.30
2018-03-16T01:40:37.381Z,5.30
2018-03-16T01:43:06.620Z,5.30
2018-03-16T01:45:34.878Z,5.20
2018-03-16T01:48:03.344Z,5.30
2018-03-16T01:50:32.256Z,5.30
2018-03-16T01:53:18.277Z,5.30
2018-03-16T01:55:47.346Z,5.20
2018-03-16T01:58:16.395Z,5.20
2018-03-16T02:00:44.664Z,5.10
2018-03-16T02:03:13.298Z,5.10
2018-03-16T02:05:41.567Z,5.10
2018-03-16T02:08:09.840Z,5.10
2018-03-16T02:10:40.678Z,5.10
2018-03-16T02:13:08.950Z,5.10
2018-03-16T02:15:37.205Z,5.10
2018-03-16T02:18:06.642Z,5.10
2018-03-16T02:20:34.937Z,5.10
2018-03-16T02:23:03.964Z,5.10
2018-03-16T02:25:32.256Z,5.10
2018-03-16T02:28:00.526Z,5.10
2018-03-16T02:30:28.783Z,5.10
2018-03-16T02:33:01.077Z,4.90
2018-03-16T02:35:30.875Z,4.90
2018-03-16T02:37:59.139Z,5.00
2018-03-16T02:40:28.211Z,5.10
2018-03-16T02:42:57.997Z,5.00
2018-03-16T02:45:26.255Z,5.10
2018-03-16T02:47:54.556Z,5.10
2018-03-16T02:50:22.815Z,5.10
2018-03-16T02:52:51.068Z,5.00
2018-03-16T02:55:20.143Z,4.90
2018-03-16T02:57:49.186Z,5.00
2018-03-16T03:00:17.943Z,5.00
2018-03-16T03:02:46.441Z,4.90
2018-03-16T03:05:14.717Z,4.90
2018-03-16T03:07:44.476Z,4.80
2018-03-16T03:10:12.992Z,4.90
2018-03-16T03:12:41.997Z,4.90
2018-03-16T03:15:10.263Z,4.80
2018-03-16T03:17:38.560Z,4.80
2018-03-16T03:20:06.955Z,4.70
2018-03-16T03:22:35.211Z,4.70
2018-03-16T03:25:04.823Z,4.80
2018-03-16T03:27:33.102Z,4.80
2018-03-16T03:30:01.380Z,4.60
2018-03-16T03:32:31.957Z,4.80
2018-03-16T03:35:01.203Z,4.80
2018-03-16T03:37:30.985Z,4.70
2018-03-16T03:39:59.410Z,4.80
2018-03-16T03:42:27.669Z,4.80
2018-03-16T03:44:55.928Z,4.70
2018-03-16T03:47:24.568Z,4.70
2018-03-16T03:49:55.652Z,4.80
2018-03-16T03:52:23.907Z,4.80
2018-03-16T03:54:52.229Z,4.70
2018-03-16T03:57:21.252Z,4.70
2018-03-16T03:59:49.521Z,4.80
2018-03-16T04:02:18.618Z,4.60
2018-03-16T04:04:48.398Z,4.60
2018-03-16T04:07:16.655Z,4.60
2018-03-16T04:09:44.948Z,4.60
2018-03-16T04:12:13.229Z,4.50
2018-03-16T04:14:42.908Z,4.60
2018-03-16T04:17:11.438Z,4.60
2018-03-16T04:19:39.694Z,4.60
2018-03-16T04:22:07.940Z,4.50
2018-03-16T04:24:37.034Z,4.40
2018-03-16T04:27:07.588Z,4.40
2018-03-16T04:29:35.847Z,4.40
2018-03-16T04:32:04.279Z,4.50
2018-03-16T04:34:33.260Z,4.50
2018-03-16T04:37:03.981Z,4.40
2018-03-16T04:39:33.314Z,4.50
2018-03-16T04:42:01.589Z,4.50
2018-03-16T04:44:30.638Z,4.60
2018-03-16T04:46:59.092Z,4.60
2018-03-16T04:49:28.128Z,4.50
2018-03-16T04:51:57.202Z,4.50
2018-03-16T04:54:25.630Z,4.50
2018-03-16T04:56:53.908Z,4.50
2018-03-16T04:59:24.452Z,4.40
2018-03-16T05:01:52.916Z,4.40
2018-03-16T05:04:21.223Z,4.50
2018-03-16T05:06:50.336Z,4.50
2018-03-16T05:09:18.626Z,4.50
2018-03-16T05:11:47.689Z,4.60
2018-03-16T05:14:16.716Z,4.20
2018-03-16T05:16:47.499Z,4.30
2018-03-16T05:19:15.838Z,4.20
2018-03-16T05:21:44.101Z,4.30
2018-03-16T05:24:13.225Z,4.30
2018-03-16T05:26:41.476Z,4.30
2018-03-16T05:29:10.241Z,4.20
2018-03-16T05:31:38.631Z,4.00
2018-03-16T05:34:06.901Z,4.00
2018-03-16T05:36:35.932Z,3.90
2018-03-16T05:39:05.232Z,3.80
2018-03-16T05:41:34.348Z,3.80
2018-03-16T05:44:03.393Z,4.10
2018-03-16T05:46:31.819Z,4.00
2018-03-16T05:49:00.111Z,4.00
2018-03-16T05:51:28.370Z,3.90
2018-03-16T05:53:58.462Z,3.80
2018-03-16T05:56:27.590Z,3.90
2018-03-16T05:58:55.862Z,3.80
2018-03-16T06:01:24.137Z,3.50
2018-03-16T06:03:52.417Z,3.50
2018-03-16T06:06:21.489Z,3.40
2018-03-16T06:08:50.180Z,3.50
2018-03-16T06:11:18.465Z,3.30
2018-03-16T06:13:46.744Z,3.40
2018-03-16T06:16:15.228Z,3.30
2018-03-16T06:18:43.981Z,3.30
2018-03-16T06:21:12.259Z,3.30
2018-03-16T06:23:40.770Z,3.40
2018-03-16T06:26:09.099Z,3.30
2018-03-16T06:28:38.155Z,3.30
2018-03-16T06:31:08.894Z,3.30
2018-03-16T06:33:37.159Z,3.30
2018-03-16T06:36:05.447Z,3.40
2018-03-16T06:38:34.464Z,3.30
2018-03-16T06:41:04.221Z,3.30
2018-03-16T06:43:32.527Z,3.30
2018-03-16T06:46:00.910Z,3.20
2018-03-16T06:48:29.179Z,3.30
2018-03-16T06:50:57.451Z,3.20
2018-03-16T06:53:25.933Z,3.20
2018-03-16T06:55:54.246Z,3.20
2018-03-16T06:58:22.514Z,3.30
2018-03-16T07:00:51.566Z,3.30
2018-03-16T07:03:19.849Z,3.20
2018-03-16T07:05:48.136Z,3.20
2018-03-16T07:08:18.558Z,3.10
2018-03-16T07:10:46.822Z,3.10
2018-03-16T07:13:15.281Z,3.30
2018-03-16T07:15:44.816Z,3.20
2018-03-16T07:18:13.142Z,3.20
2018-03-16T07:20:42.059Z,3.20
2018-03-16T07:23:10.415Z,3.20
2018-03-16T07:25:39.323Z,3.30
2018-03-16T07:28:07.625Z,3.20
2018-03-16T07:30:36.502Z,3.30
2018-03-16T07:33:05.463Z,3.30
2018-03-16T07:35:33.650Z,3.30
2018-03-16T07:38:02.206Z,3.40
2018-03-16T07:40:31.183Z,3.50
2018-03-16T07:43:01.070Z,3.40
2018-03-16T07:45:37.763Z,3.40
2018-03-16T07:48:06.049Z,3.50
2018-03-16T07:50:35.088Z,3.40
2018-03-16T07:53:03.758Z,3.30
2018-03-16T07:55:32.585Z,3.40
2018-03-16T07:58:00.862Z,3.40
2018-03-16T08:00:29.344Z,3.40
2018-03-16T08:02:57.618Z,3.50
2018-03-16T08:05:25.884Z,3.50
2018-03-16T08:07:56.031Z,3.40
2018-03-16T08:10:25.090Z,3.50
2018-03-16T08:12:53.362Z,3.50
2018-03-16T08:15:21.881Z,3.80
2018-03-16T08:17:51.634Z,3.90
2018-03-16T08:20:20.140Z,3.90
2018-03-16T08:22:48.645Z,3.90
2018-03-16T08:25:16.937Z,3.90
2018-03-16T08:27:45.959Z,3.80
2018-03-16T08:30:15.747Z,3.90
2018-03-16T08:32:45.010Z,3.90
2018-03-16T08:35:13.298Z,3.90
2018-03-16T08:37:41.799Z,3.90
2018-03-16T08:40:11.587Z,3.80
2018-03-16T08:42:41.410Z,3.80
2018-03-16T08:45:12.834Z,3.90
2018-03-16T08:47:41.101Z,3.90
2018-03-16T08:50:09.373Z,3.80
2018-03-16T08:52:38.516Z,4.00
2018-03-16T08:55:06.761Z,3.90
2018-03-16T08:57:35.051Z,3.90
2018-03-16T09:00:03.354Z,3.90
2018-03-16T09:02:31.673Z,3.60
2018-03-16T09:04:59.979Z,3.70
2018-03-16T09:07:29.200Z,3.90
2018-03-16T09:09:58.396Z,4.10
2018-03-16T09:12:27.500Z,3.90
2018-03-16T09:14:55.830Z,3.90
2018-03-16T09:17:24.111Z,4.00
2018-03-16T09:19:54.767Z,3.80
2018-03-16T09:22:23.046Z,3.80
2018-03-16T09:24:52.440Z,4.00
2018-03-16T09:27:20.718Z,4.00
2018-03-16T09:29:49.374Z,3.80
2018-03-16T09:32:17.646Z,3.80
2018-03-16T09:34:47.103Z,3.90
2018-03-16T09:37:16.990Z,3.90
2018-03-16T09:39:45.267Z,3.90
2018-03-16T09:42:13.515Z,3.80
2018-03-16T09:44:41.819Z,4.00
2018-03-16T09:47:11.898Z,3.70
2018-03-16T09:49:40.954Z,4.00
2018-03-16T09:52:09.641Z,4.00
2018-03-16T09:54:50.511Z,3.90
2018-03-16T09:57:19.804Z,3.60
2018-03-16T09:59:48.123Z,3.50
2018-03-16T10:02:17.164Z,3.60
2018-03-16T10:04:45.469Z,3.60
2018-03-16T10:07:13.820Z,3.80
2018-03-16T10:09:43.713Z,4.10
2018-03-16T10:12:12.212Z,3.60
2018-03-16T10:14:40.599Z,3.70
2018-03-16T10:17:09.826Z,3.70
2018-03-16T10:19:38.235Z,3.80
2018-03-16T10:22:07.029Z,3.70
2018-03-16T10:24:37.010Z,3.60
2018-03-16T10:27:05.325Z,3.60
2018-03-16T10:29:34.260Z,3.60
2018-03-16T10:32:03.288Z,3.60
2018-03-16T10:34:37.058Z,3.50
2018-03-16T10:37:06.370Z,3.50
2018-03-16T10:39:34.618Z,3.60
2018-03-16T10:42:03.025Z,3.40
2018-03-16T10:44:31.273Z,3.60
2018-03-16T10:47:01.146Z,3.60
2018-03-16T10:49:29.997Z,3.50
2018-03-16T10:51:59.870Z,3.70
2018-03-16T10:54:28.123Z,3.80
2018-03-16T10:56:56.770Z,3.80
2018-03-16T10:59:25.804Z,3.90
2018-03-16T11:01:55.704Z,3.90
2018-03-16T11:04:29.772Z,3.80
2018-03-16T11:07:03.766Z,3.80
2018-03-16T11:09:32.608Z,3.80
2018-03-16T11:12:01.650Z,4.10
2018-03-16T11:14:29.914Z,4.10
2018-03-16T11:16:58.246Z,4.00
2018-03-16T11:19:27.218Z,4.30
2018-03-16T11:21:55.482Z,4.10
2018-03-16T11:24:23.871Z,4.20
2018-03-16T11:26:52.314Z,4.10
2018-03-16T11:29:20.613Z,4.10
2018-03-16T11:31:49.115Z,4.20
2018-03-16T11:34:18.671Z,4.30
2018-03-16T11:36:46.948Z,4.40
2018-03-16T11:39:15.487Z,4.10
2018-03-16T11:41:43.761Z,4.50
2018-03-16T11:44:13.561Z,4.60
2018-03-16T11:46:42.473Z,4.60
2018-03-16T11:49:10.969Z,4.80
2018-03-16T11:51:41.304Z,4.60
2018-03-16T11:54:10.634Z,4.70
2018-03-16T11:56:40.060Z,4.80
2018-03-16T11:59:09.089Z,4.80
2018-03-16T12:01:37.651Z,4.90
2018-03-16T12:04:05.945Z,5.00
2018-03-16T12:06:34.219Z,4.90
2018-03-16T12:09:04.231Z,4.80
2018-03-16T12:11:33.099Z,4.80
2018-03-16T12:14:01.364Z,4.90
2018-03-16T12:16:29.673Z,5.10
2018-03-16T12:18:58.908Z,4.90
2018-03-16T12:21:28.024Z,4.90
2018-03-16T12:23:57.250Z,4.90
2018-03-16T12:26:25.522Z,5.00
2018-03-16T12:28:53.798Z,5.10
2018-03-16T12:31:22.687Z,5.00
2018-03-16T12:33:50.930Z,5.00
2018-03-16T12:36:21.246Z,5.10
2018-03-16T12:38:49.779Z,4.90
2018-03-16T12:41:18.068Z,4.90
2018-03-16T12:43:46.381Z,4.90
2018-03-16T12:46:17.189Z,4.70
2018-03-16T12:48:46.324Z,4.70
2018-03-16T12:51:14.589Z,4.70
2018-03-16T12:53:44.961Z,4.80
2018-03-16T12:56:13.224Z,4.90
2018-03-16T12:58:41.485Z,4.70
2018-03-16T13:01:10.173Z,4.60
2018-03-16T13:03:38.450Z,4.50
2018-03-16T13:06:06.840Z,4.60
2018-03-16T13:08:35.634Z,4.90
2018-03-16T13:11:05.430Z,4.90
2018-03-16T13:13:34.195Z,4.90
2018-03-16T13:16:03.011Z,5.00
2018-03-16T13:18:31.384Z,4.90
2018-03-16T13:20:59.749Z,4.90
2018-03-16T13:23:28.193Z,4.90
2018-03-16T13:25:56.671Z,4.90
2018-03-16T13:28:25.780Z,5.10
2018-03-16T13:30:55.267Z,5.30
2018-03-16T13:33:23.595Z,5.30
2018-03-16T13:35:54.587Z,5.10
2018-03-16T13:38:24.246Z,5.00
2018-03-16T13:40:52.525Z,5.10
2018-03-16T13:43:21.759Z,5.10
2018-03-16T13:45:50.437Z,4.90
2018-03-16T13:48:20.248Z,4.90
2018-03-16T13:50:48.548Z,5.00
2018-03-16T13:53:18.017Z,5.10
2018-03-16T13:55:46.757Z,5.00
2018-03-16T13:58:15.816Z,5.00
2018-03-16T14:00:45.149Z,4.90
2018-03-16T14:03:14.398Z,5.20
2018-03-16T14:05:42.681Z,5.10
2018-03-16T14:08:11.275Z,5.10
2018-03-16T14:10:39.534Z,5.20
2018-03-16T14:13:10.104Z,5.00
2018-03-16T14:15:38.973Z,5.00
2018-03-16T14:18:08.077Z,5.00
2018-03-16T14:20:36.336Z,4.90
2018-03-16T14:23:04.983Z,4.80
2018-03-16T14:25:33.355Z,4.90
2018-03-16T14:28:01.753Z,5.00
2018-03-16T14:30:30.635Z,4.80
2018-03-16T14:32:58.951Z,5.00
2018-03-16T14:35:28.029Z,4.90
2018-03-16T14:37:56.326Z,4.90
2018-03-16T14:40:26.738Z,4.80
2018-03-16T14:42:54.997Z,4.90
2018-03-16T14:45:23.503Z,4.90
2018-03-16T14:47:51.809Z,4.80
2018-03-16T14:50:21.608Z,4.70
2018-03-16T14:52:50.157Z,4.70
2018-03-16T14:55:18.447Z,4.60
2018-03-16T14:57:49.178Z,4.60
2018-03-16T15:00:17.944Z,4.60
2018-03-16T15:02:47.144Z,4.50
2018-03-16T15:05:15.539Z,4.50
2018-03-16T15:07:43.901Z,4.50
2018-03-16T15:10:12.190Z,4.40
2018-03-16T15:12:40.537Z,4.30
2018-03-16T15:15:09.553Z,4.40
2018-03-16T15:17:39.102Z,4.30
2018-03-16T15:20:08.269Z,4.20
2018-03-16T15:22:36.575Z,4.30
2018-03-16T15:25:04.876Z,4.10
2018-03-16T15:27:33.149Z,4.20
2018-03-16T15:30:02.230Z,4.20
2018-03-16T15:32:31.362Z,4.10
2018-03-16T15:34:59.616Z,4.10
2018-03-16T15:37:28.983Z,4.10
2018-03-16T15:39:57.271Z,4.00
2018-03-16T15:42:25.612Z,4.00
2018-03-16T15:44:55.398Z,3.90
2018-03-16T15:47:24.546Z,4.10
2018-03-16T15:49:52.802Z,4.10
2018-03-16T15:52:21.560Z,3.80
2018-03-16T15:54:50.666Z,4.00
2018-03-16T15:57:18.932Z,4.00
2018-03-16T15:59:47.669Z,3.80
2018-03-16T16:02:16.263Z,4.00
2018-03-16T16:04:44.590Z,3.90
2018-03-16T16:07:15.283Z,3.90
2018-03-16T16:09:44.449Z,3.50
2018-03-16T16:12:12.673Z,3.50
2018-03-16T16:14:41.851Z,3.30
2018-03-16T16:17:10.115Z,3.30
2018-03-16T16:19:40.014Z,3.40
2018-03-16T16:22:08.388Z,3.30
2018-03-16T16:24:36.662Z,3.20
2018-03-16T16:27:04.936Z,3.20
2018-03-16T16:29:33.331Z,3.20
2018-03-16T16:32:03.245Z,3.30
2018-03-16T16:34:31.535Z,3.20
2018-03-16T16:37:00.854Z,3.00
2018-03-16T16:39:29.905Z,2.90
2018-03-16T16:41:58.152Z,2.90
2018-03-16T16:44:28.077Z,2.90
2018-03-16T16:46:56.353Z,2.80
2018-03-16T16:49:24.655Z,2.80
2018-03-16T16:51:52.944Z,2.70
2018-03-16T16:54:22.035Z,2.70
2018-03-16T16:56:50.319Z,2.70
2018-03-16T16:59:19.008Z,2.60
2018-03-16T17:01:53.115Z,2.50
2018-03-16T17:04:21.562Z,2.40
2018-03-16T17:06:51.409Z,2.40
2018-03-16T17:09:19.717Z,2.50
2018-03-16T17:11:48.780Z,2.10
2018-03-16T17:14:17.247Z,2.10
2018-03-16T17:16:45.555Z,1.90
2018-03-16T17:19:17.598Z,1.90
2018-03-16T17:21:45.873Z,1.90
2018-03-16T17:24:14.148Z,2.10
2018-03-16T17:26:42.825Z,2.00
2018-03-16T17:29:11.117Z,2.00
2018-03-16T17:31:39.411Z,2.00
2018-03-16T17:34:09.893Z,1.60
2018-03-16T17:36:38.157Z,1.60
2018-03-16T17:39:06.423Z,1.70
2018-03-16T17:41:34.732Z,1.70
2018-03-16T17:44:04.336Z,1.70
2018-03-16T17:46:32.583Z,1.70
2018-03-16T17:49:00.937Z,1.70
2018-03-16T17:51:30.023Z,1.70
2018-03-16T17:53:59.110Z,1.70
2018-03-16T17:56:28.878Z,1.60
2018-03-16T17:58:57.985Z,1.80
2018-03-16T18:01:26.285Z,1.70
2018-03-16T18:03:54.907Z,1.90
2018-03-16T18:06:23.222Z,1.90
2018-03-16T18:08:51.498Z,2.00
2018-03-16T18:11:20.637Z,2.00
2018-03-16T18:13:49.665Z,1.90
2018-03-16T18:16:17.957Z,1.80
2018-03-16T18:18:46.279Z,1.90
2018-03-16T18:21:18.184Z,1.90
2018-03-16T18:23:47.229Z,1.80
2018-03-16T18:26:16.292Z,1.80
2018-03-16T18:28:44.581Z,1.80
2018-03-16T18:31:13.168Z,1.80
2018-03-16T18:33:41.457Z,1.90
2018-03-16T18:36:09.735Z,1.70
2018-03-16T18:38:38.429Z,1.70
2018-03-16T18:41:07.517Z,1.70
2018-03-16T18:43:35.785Z,1.60
2018-03-16T18:46:07.655Z,1.60
2018-03-16T18:48:36.710Z,1.70
2018-03-16T18:51:05.034Z,1.70
2018-03-16T18:53:34.424Z,1.70
2018-03-16T18:56:03.807Z,1.70
2018-03-16T18:58:32.907Z,1.70
2018-03-16T19:01:01.372Z,1.70
2018-03-16T19:03:29.660Z,1.70
2018-03-16T19:05:59.453Z,1.70
2018-03-16T19:08:27.951Z,1.60
2018-03-16T19:10:56.261Z,1.60
2018-03-16T19:13:26.859Z,1.50
2018-03-16T19:15:55.658Z,1.50
2018-03-16T19:18:23.952Z,1.40
2018-03-16T19:20:52.917Z,1.50
2018-03-16T19:23:21.987Z,1.40
2018-03-16T19:25:51.825Z,1.40
2018-03-16T19:28:20.079Z,1.40
2018-03-16T19:30:48.597Z,1.40
2018-03-16T19:33:17.628Z,1.30
2018-03-16T19:35:46.756Z,1.30
2018-03-16T19:38:15.056Z,1.30
2018-03-16T19:40:43.338Z,1.30
2018-03-16T19:43:11.618Z,1.20
2018-03-16T19:45:39.922Z,1.20
2018-03-16T19:48:12.318Z,1.20
2018-03-16T19:50:41.964Z,1.20
2018-03-16T19:53:10.293Z,1.30
2018-03-16T19:55:38.545Z,1.20
2018-03-16T19:58:07.749Z,1.10
2018-03-16T20:00:36.831Z,1.10
2018-03-16T20:03:05.103Z,1.10
2018-03-16T20:05:33.499Z,1.20
2018-03-16T20:08:03.695Z,1.10
2018-03-16T20:10:31.974Z,1.00
2018-03-16T20:13:01.827Z,1.00
2018-03-16T20:15:30.119Z,1.00
2018-03-16T20:17:58.380Z,1.10
2018-03-16T20:20:26.677Z,0.90
2018-03-16T20:22:54.959Z,1.00
2018-03-16T20:25:23.540Z,1.00
2018-03-16T20:27:53.687Z,0.90
2018-03-16T20:30:21.998Z,0.80
2018-03-16T20:32:51.055Z,0.90
2018-03-16T20:35:19.542Z,0.90
2018-03-16T20:37:49.401Z,0.90
2018-03-16T20:40:18.440Z,0.70
2018-03-16T20:42:46.791Z,0.80
2018-03-16T20:45:15.062Z,0.80
2018-03-16T20:47:43.332Z,0.70
2018-03-16T20:50:13.180Z,0.70
2018-03-16T20:52:42.171Z,0.70
2018-03-16T20:55:10.445Z,0.60
2018-03-16T20:57:38.769Z,0.50
2018-03-16T21:00:07.807Z,0.50
2018-03-16T21:02:36.150Z,0.50
2018-03-16T21:05:05.219Z,0.50
2018-03-16T21:07:33.489Z,0.50
2018-03-16T21:10:02.426Z,0.60
2018-03-16T21:12:30.951Z,0.70
2018-03-16T21:14:59.276Z,0.70
2018-03-16T21:17:28.327Z,0.60
2018-03-16T21:19:56.652Z,0.60
2018-03-16T21:22:24.929Z,0.60
2018-03-16T21:24:53.186Z,0.60
2018-03-16T21:27:22.613Z,0.70
2018-03-16T21:29:51.656Z,0.60
2018-03-16T21:32:19.911Z,0.40
2018-03-16T21:34:48.248Z,0.40
2018-03-16T21:37:16.523Z,0.40
2018-03-16T21:39:47.897Z,0.30
2018-03-16T21:42:16.336Z,0.30
2018-03-16T21:44:44.593Z,0.30
2018-03-16T21:47:12.885Z,0.30
2018-03-16T21:49:41.211Z,0.30
2018-03-16T21:52:12.529Z,0.20
2018-03-16T21:54:43.015Z,0.30
2018-03-16T21:57:11.327Z,0.20
2018-03-16T21:59:43.338Z,0.20
2018-03-16T22:02:13.342Z,0.20
2018-03-16T22:04:44.047Z,0.20
2018-03-16T22:07:13.260Z,0.10
2018-03-16T22:09:44.053Z,0.20
2018-03-16T22:12:14.133Z,0.10
2018-03-16T22:14:42.425Z,0.10
2018-03-16T22:17:11.567Z,0.20
2018-03-16T22:19:40.631Z,0.10
2018-03-16T22:22:09.075Z,0.10
2018-03-16T22:24:37.522Z,0.10
2018-03-16T22:27:05.797Z,0.00
2018-03-16T22:29:37.201Z,-0.10
2018-03-16T22:32:05.916Z,-0.10
2018-03-16T22:34:34.978Z,-0.10
2018-03-16T22:37:03.312Z,-0.10
2018-03-16T22:39:31.840Z,-0.10
2018-03-16T22:42:00.167Z,-0.10
2018-03-16T22:44:28.435Z,-0.20
2018-03-16T22:46:57.946Z,-0.10
2018-03-16T22:49:26.241Z,-0.20
2018-03-16T22:51:54.556Z,-0.10
2018-03-16T22:54:23.932Z,-0.20
2018-03-16T22:56:52.288Z,-0.10
2018-03-16T22:59:20.518Z,-0.20
2018-03-16T23:01:48.995Z,-0.20
2018-03-16T23:04:17.302Z,-0.20
2018-03-16T23:06:47.169Z,-0.20
2018-03-16T23:09:15.782Z,-0.20
2018-03-16T23:11:44.048Z,-0.20
2018-03-16T23:14:13.034Z,-0.20
2018-03-16T23:16:41.837Z,-0.20
2018-03-16T23:19:11.728Z,-0.30
2018-03-16T23:21:40.029Z,-0.30
2018-03-16T23:24:08.574Z,-0.30
2018-03-16T23:26:36.902Z,-0.20
2018-03-16T23:29:05.964Z,-0.30
2018-03-16T23:31:34.867Z,-0.30
2018-03-16T23:34:03.150Z,-0.20
2018-03-16T23:36:31.548Z,-0.40
2018-03-16T23:38:59.842Z,-0.30
2018-03-16T23:41:28.119Z,-0.30
2018-03-16T23:43:58.688Z,-0.30
2018-03-16T23:46:27.012Z,-0.20
2018-03-16T23:48:56.056Z,-0.30
2018-03-16T23:51:24.434Z,-0.30
2018-03-16T23:53:54.692Z,-0.30
2018-03-16T23:56:24.902Z,-0.40
2018-03-16T23:58:54.010Z,-0.30
